createdAt,value
2017-09-29T00:01:17.073Z,21.30
2017-09-29T00:03:45.963Z,21.30
2017-09-29T00:06:15.978Z,21.30
2017-09-29T00:08:45.741Z,21.20
2017-09-29T00:11:14.720Z,21.20
2017-09-29T00:13:43.534Z,21.20
2017-09-29T00:16:13.125Z,21.10
2017-09-29T00:18:42.090Z,21.10
2017-09-29T00:21:10.903Z,21.10
2017-09-29T00:23:40.472Z,21.10
2017-09-29T00:26:09.569Z,21.10
2017-09-29T00:28:38.563Z,21.10
2017-09-29T00:31:07.862Z,21.10
2017-09-29T00:33:37.372Z,21.10
2017-09-29T00:36:06.263Z,21.00
2017-09-29T00:38:35.364Z,21.00
2017-09-29T00:41:05.227Z,21.00
2017-09-29T00:43:34.514Z,21.00
2017-09-29T00:46:04.316Z,21.10
2017-09-29T00:48:33.094Z,21.00
2017-09-29T00:51:03.803Z,21.10
2017-09-29T00:53:33.511Z,21.10
2017-09-29T00:56:03.617Z,21.10
2017-09-29T00:58:32.725Z,21.10
2017-09-29T01:01:01.636Z,21.20
2017-09-29T01:03:31.943Z,21.20
2017-09-29T01:06:01.073Z,21.10
2017-09-29T01:08:30.750Z,21.10
2017-09-29T01:10:59.638Z,21.10
2017-09-29T01:13:28.529Z,21.10
2017-09-29T01:15:57.674Z,21.10
2017-09-29T01:18:26.559Z,21.10
2017-09-29T01:20:55.512Z,21.10
2017-09-29T01:23:24.400Z,21.10
2017-09-29T01:25:53.403Z,21.00
2017-09-29T01:28:22.386Z,21.00
2017-09-29T01:30:52.097Z,21.00
2017-09-29T01:33:21.193Z,21.10
2017-09-29T01:35:50.084Z,21.10
2017-09-29T01:38:18.921Z,21.10
2017-09-29T01:40:48.896Z,21.00
2017-09-29T01:43:17.785Z,21.10
2017-09-29T01:45:47.019Z,21.00
2017-09-29T01:48:16.793Z,21.00
2017-09-29T01:50:45.995Z,20.90
2017-09-29T01:53:14.888Z,20.90
2017-09-29T01:55:44.597Z,20.90
2017-09-29T01:58:14.309Z,20.90
2017-09-29T02:00:43.297Z,20.90
2017-09-29T02:03:13.421Z,20.80
2017-09-29T02:05:42.515Z,20.80
2017-09-29T02:08:11.643Z,20.80
2017-09-29T02:10:40.503Z,20.80
2017-09-29T02:13:09.592Z,20.80
2017-09-29T02:15:39.769Z,20.80
2017-09-29T02:18:09.632Z,20.80
2017-09-29T02:20:38.934Z,20.70
2017-09-29T02:23:09.640Z,20.80
2017-09-29T02:25:38.480Z,20.80
2017-09-29T02:28:07.579Z,20.70
2017-09-29T02:30:36.854Z,20.70
2017-09-29T02:33:06.562Z,20.70
2017-09-29T02:35:36.577Z,20.70
2017-09-29T02:38:05.620Z,20.60
2017-09-29T02:40:35.393Z,20.70
2017-09-29T02:43:05.093Z,20.60
2017-09-29T02:45:33.900Z,20.60
2017-09-29T02:48:03.799Z,20.60
2017-09-29T02:50:32.866Z,20.60
2017-09-29T02:53:01.789Z,20.60
2017-09-29T02:55:30.691Z,20.60
2017-09-29T02:58:02.279Z,20.60
2017-09-29T03:00:32.369Z,20.60
2017-09-29T03:03:03.743Z,20.60
2017-09-29T03:05:34.650Z,20.70
2017-09-29T03:08:03.681Z,20.70
2017-09-29T03:10:32.627Z,20.60
2017-09-29T03:13:01.515Z,20.60
2017-09-29T03:15:30.403Z,20.60
2017-09-29T03:17:59.094Z,20.60
2017-09-29T03:20:28.106Z,20.60
2017-09-29T03:22:56.871Z,20.60
2017-09-29T03:25:25.561Z,20.50
2017-09-29T03:27:54.458Z,20.50
2017-09-29T03:30:23.663Z,20.50
2017-09-29T03:32:52.437Z,20.40
2017-09-29T03:35:21.433Z,20.40
2017-09-29T03:37:50.342Z,20.50
2017-09-29T03:40:19.215Z,20.50
2017-09-29T03:42:50.266Z,20.50
2017-09-29T03:45:19.144Z,20.50
2017-09-29T03:47:48.037Z,20.50
2017-09-29T03:50:18.189Z,20.60
2017-09-29T03:52:49.693Z,20.50
2017-09-29T03:55:20.400Z,20.50
2017-09-29T03:57:51.010Z,20.50
2017-09-29T04:00:19.969Z,20.50
2017-09-29T04:02:49.678Z,20.40
2017-09-29T04:05:18.543Z,20.40
2017-09-29T04:07:47.650Z,20.50
2017-09-29T04:10:16.354Z,20.50
2017-09-29T04:12:45.399Z,20.40
2017-09-29T04:15:15.366Z,20.40
2017-09-29T04:17:45.430Z,20.30
2017-09-29T04:20:14.165Z,20.30
2017-09-29T04:22:44.081Z,20.40
2017-09-29T04:25:13.795Z,20.30
2017-09-29T04:27:42.621Z,20.40
2017-09-29T04:30:11.375Z,20.40
2017-09-29T04:32:40.311Z,20.40
2017-09-29T04:35:09.209Z,20.40
2017-09-29T04:37:37.974Z,20.30
2017-09-29T04:40:07.650Z,20.40
2017-09-29T04:42:36.496Z,20.30
2017-09-29T04:45:05.171Z,20.40
2017-09-29T04:47:33.849Z,20.40
2017-09-29T04:50:02.808Z,20.40
2017-09-29T04:52:32.315Z,20.40
2017-09-29T04:55:01.149Z,20.40
2017-09-29T04:57:30.605Z,20.40
2017-09-29T04:59:59.843Z,20.40
2017-09-29T05:02:28.601Z,20.40
2017-09-29T05:04:57.483Z,20.40
2017-09-29T05:07:26.175Z,20.40
2017-09-29T05:09:55.885Z,20.40
2017-09-29T05:12:24.563Z,20.40
2017-09-29T05:14:53.660Z,20.40
2017-09-29T05:17:22.348Z,20.40
2017-09-29T05:19:51.037Z,20.40
2017-09-29T05:22:20.133Z,20.40
2017-09-29T05:24:49.020Z,20.30
2017-09-29T05:27:17.940Z,20.40
2017-09-29T05:29:48.038Z,20.40
2017-09-29T05:32:17.127Z,20.40
2017-09-29T05:34:46.575Z,20.40
2017-09-29T05:37:16.194Z,20.50
2017-09-29T05:39:46.094Z,20.40
2017-09-29T05:42:14.947Z,20.40
2017-09-29T05:44:44.248Z,20.40
2017-09-29T05:47:13.137Z,20.40
2017-09-29T05:49:41.825Z,20.50
2017-09-29T05:52:10.712Z,20.40
2017-09-29T05:54:39.399Z,20.40
2017-09-29T05:57:08.291Z,20.40
2017-09-29T05:59:37.185Z,20.40
2017-09-29T06:02:06.801Z,20.40
2017-09-29T06:04:35.719Z,20.40
2017-09-29T06:07:04.682Z,20.50
2017-09-29T06:09:34.383Z,20.50
2017-09-29T06:12:03.489Z,20.40
2017-09-29T06:14:33.194Z,20.50
2017-09-29T06:17:02.408Z,20.50
2017-09-29T06:19:31.178Z,20.50
2017-09-29T06:22:00.072Z,20.60
2017-09-29T06:24:28.959Z,20.50
2017-09-29T06:26:57.661Z,20.60
2017-09-29T06:29:26.536Z,20.70
2017-09-29T06:31:55.562Z,20.60
2017-09-29T06:34:25.855Z,20.70
2017-09-29T06:36:54.972Z,20.80
2017-09-29T06:39:24.590Z,20.80
2017-09-29T06:41:53.853Z,20.90
2017-09-29T06:44:23.333Z,20.90
2017-09-29T06:46:52.162Z,21.00
2017-09-29T06:49:21.172Z,21.00
2017-09-29T06:51:51.074Z,21.20
2017-09-29T06:54:20.575Z,21.20
2017-09-29T06:56:49.672Z,21.20
2017-09-29T06:59:18.573Z,21.30
2017-09-29T07:01:48.435Z,21.40
2017-09-29T07:04:17.824Z,22.00
2017-09-29T07:06:47.988Z,23.20
2017-09-29T07:09:17.156Z,24.30
2017-09-29T07:11:45.964Z,25.20
2017-09-29T07:14:15.180Z,25.90
2017-09-29T07:16:44.696Z,26.50
2017-09-29T07:19:14.259Z,27.10
2017-09-29T07:21:43.844Z,26.80
2017-09-29T07:24:12.995Z,26.20
2017-09-29T07:26:44.945Z,26.10
2017-09-29T07:29:15.594Z,26.00
2017-09-29T07:31:46.415Z,27.40
2017-09-29T07:34:18.534Z,27.70
2017-09-29T07:36:47.678Z,26.80
2017-09-29T07:39:16.787Z,26.70
2017-09-29T07:41:45.926Z,26.70
2017-09-29T07:44:17.219Z,26.50
2017-09-29T07:46:52.048Z,28.30
2017-09-29T07:49:31.355Z,27.60
2017-09-29T07:52:01.322Z,26.70
2017-09-29T07:54:31.025Z,26.30
2017-09-29T07:57:00.170Z,26.30
2017-09-29T07:59:28.907Z,26.40
2017-09-29T08:01:58.236Z,26.40
2017-09-29T08:04:28.167Z,26.60
2017-09-29T08:06:57.312Z,26.50
2017-09-29T08:09:26.344Z,25.70
2017-09-29T08:11:55.258Z,24.90
2017-09-29T08:14:24.422Z,24.70
2017-09-29T08:16:54.710Z,24.80
2017-09-29T08:19:23.795Z,24.80
2017-09-29T08:21:52.574Z,23.90
2017-09-29T08:24:21.710Z,23.80
2017-09-29T08:26:50.601Z,23.80
2017-09-29T08:29:19.297Z,23.90
2017-09-29T08:31:48.323Z,23.70
2017-09-29T08:34:17.206Z,24.20
2017-09-29T08:36:46.373Z,24.40
2017-09-29T08:39:15.259Z,24.80
2017-09-29T08:41:44.361Z,25.10
2017-09-29T08:44:13.246Z,24.30
2017-09-29T08:46:41.931Z,24.40
2017-09-29T08:49:10.825Z,24.50
2017-09-29T08:51:39.698Z,24.20
2017-09-29T08:54:09.021Z,24.00
2017-09-29T08:56:37.907Z,23.50
2017-09-29T08:59:07.206Z,23.60
2017-09-29T09:01:36.106Z,24.10
2017-09-29T09:04:05.235Z,24.40
2017-09-29T09:06:34.236Z,24.60
2017-09-29T09:09:04.376Z,24.60
2017-09-29T09:11:33.775Z,24.80
2017-09-29T09:14:02.938Z,24.80
2017-09-29T09:16:32.211Z,24.20
2017-09-29T09:19:02.539Z,23.90
2017-09-29T09:21:32.880Z,24.30
2017-09-29T09:24:01.716Z,24.30
2017-09-29T09:26:31.558Z,24.10
2017-09-29T09:29:00.640Z,24.10
2017-09-29T09:31:29.552Z,24.10
2017-09-29T09:33:58.439Z,23.80
2017-09-29T09:36:27.336Z,24.00
2017-09-29T09:38:56.009Z,24.10
2017-09-29T09:41:24.906Z,24.10
2017-09-29T09:43:54.614Z,24.40
2017-09-29T09:46:23.527Z,24.40
2017-09-29T09:48:53.426Z,24.30
2017-09-29T09:51:22.223Z,24.00
2017-09-29T09:53:51.491Z,23.90
2017-09-29T09:56:20.553Z,24.30
2017-09-29T09:58:50.953Z,24.60
2017-09-29T10:01:19.641Z,24.60
2017-09-29T10:03:48.315Z,24.40
2017-09-29T10:06:17.008Z,24.20
2017-09-29T10:08:46.547Z,23.90
2017-09-29T10:11:15.391Z,23.90
2017-09-29T10:13:44.078Z,24.00
2017-09-29T10:16:12.966Z,23.90
2017-09-29T10:18:41.669Z,24.20
2017-09-29T10:21:10.620Z,24.50
2017-09-29T10:23:39.754Z,24.80
2017-09-29T10:26:08.642Z,25.10
2017-09-29T10:28:37.936Z,25.30
2017-09-29T10:31:06.912Z,25.40
2017-09-29T10:33:36.328Z,25.30
2017-09-29T10:36:05.123Z,25.30
2017-09-29T10:38:34.227Z,25.10
2017-09-29T10:41:03.209Z,25.10
2017-09-29T10:43:32.304Z,24.90
2017-09-29T10:46:00.991Z,24.80
2017-09-29T10:48:29.881Z,25.10
2017-09-29T10:51:00.194Z,25.00
2017-09-29T10:53:30.580Z,25.10
2017-09-29T10:55:59.421Z,25.10
2017-09-29T10:58:29.542Z,25.20
2017-09-29T11:00:58.617Z,25.30
2017-09-29T11:03:27.326Z,25.00
2017-09-29T11:05:57.094Z,25.00
2017-09-29T11:08:26.952Z,25.20
2017-09-29T11:10:56.930Z,25.10
2017-09-29T11:13:25.934Z,25.10
2017-09-29T11:15:55.587Z,25.20
2017-09-29T11:18:24.623Z,25.20
2017-09-29T11:20:53.864Z,25.20
2017-09-29T11:23:23.969Z,25.70
2017-09-29T11:25:53.099Z,26.00
2017-09-29T11:28:21.934Z,26.10
2017-09-29T11:30:50.847Z,26.10
2017-09-29T11:33:19.500Z,25.90
2017-09-29T11:35:50.176Z,25.80
2017-09-29T11:38:19.417Z,25.70
2017-09-29T11:40:48.850Z,26.00
2017-09-29T11:43:20.655Z,25.70
2017-09-29T11:45:49.943Z,25.70
2017-09-29T11:48:18.932Z,25.70
2017-09-29T11:50:47.843Z,25.70
2017-09-29T11:53:17.534Z,26.00
2017-09-29T11:55:47.042Z,26.00
2017-09-29T11:58:16.842Z,25.70
2017-09-29T12:00:45.800Z,25.80
2017-09-29T12:03:15.258Z,25.70
2017-09-29T12:05:44.596Z,25.60
2017-09-29T12:08:13.344Z,26.10
2017-09-29T12:10:42.501Z,26.80
2017-09-29T12:13:11.549Z,28.30
2017-09-29T12:15:41.451Z,28.30
2017-09-29T12:18:10.540Z,29.20
2017-09-29T12:20:40.063Z,29.40
2017-09-29T12:23:09.862Z,30.80
2017-09-29T12:25:39.226Z,31.20
2017-09-29T12:28:08.580Z,31.50
2017-09-29T12:30:37.664Z,30.70
2017-09-29T12:33:06.766Z,31.20
2017-09-29T12:35:36.268Z,30.60
2017-09-29T12:38:05.266Z,30.30
2017-09-29T12:40:35.167Z,30.20
2017-09-29T12:43:04.058Z,30.40
2017-09-29T12:45:33.417Z,30.10
2017-09-29T12:48:03.531Z,30.10
2017-09-29T12:50:32.273Z,30.20
2017-09-29T12:53:01.569Z,31.20
2017-09-29T12:55:30.986Z,29.80
2017-09-29T12:57:59.759Z,30.20
2017-09-29T13:00:29.576Z,30.00
2017-09-29T13:02:58.827Z,30.90
2017-09-29T13:05:30.012Z,31.40
2017-09-29T13:07:59.120Z,29.80
2017-09-29T13:10:28.262Z,28.90
2017-09-29T13:12:57.324Z,28.90
2017-09-29T13:15:26.228Z,28.90
2017-09-29T13:17:55.703Z,29.20
2017-09-29T13:20:24.800Z,29.00
2017-09-29T13:22:54.328Z,28.90
2017-09-29T13:25:24.831Z,28.10
2017-09-29T13:27:53.608Z,28.10
2017-09-29T13:30:22.635Z,28.50
2017-09-29T13:32:51.670Z,28.20
2017-09-29T13:35:20.837Z,27.70
2017-09-29T13:37:49.801Z,28.30
2017-09-29T13:40:18.693Z,28.80
2017-09-29T13:42:47.669Z,29.40
2017-09-29T13:45:17.918Z,29.30
2017-09-29T13:47:47.965Z,27.50
2017-09-29T13:50:17.617Z,28.00
2017-09-29T13:52:48.191Z,29.20
2017-09-29T13:55:17.163Z,29.30
2017-09-29T13:57:47.578Z,30.00
2017-09-29T14:00:16.982Z,30.20
2017-09-29T14:02:47.453Z,30.00
2017-09-29T14:05:16.600Z,29.70
2017-09-29T14:07:46.423Z,28.60
2017-09-29T14:10:17.000Z,28.10
2017-09-29T14:12:47.967Z,28.00
2017-09-29T14:15:18.801Z,27.20
2017-09-29T14:17:48.189Z,26.60
2017-09-29T14:20:16.866Z,26.60
2017-09-29T14:22:48.168Z,26.10
2017-09-29T14:25:19.345Z,26.10
2017-09-29T14:27:48.378Z,25.90
2017-09-29T14:30:19.136Z,26.10
2017-09-29T14:32:47.981Z,26.10
2017-09-29T14:35:18.923Z,26.10
2017-09-29T14:37:48.220Z,25.70
2017-09-29T14:40:17.574Z,25.50
2017-09-29T14:42:47.920Z,25.50
2017-09-29T14:45:17.407Z,25.60
2017-09-29T14:47:49.812Z,25.80
2017-09-29T14:50:19.072Z,25.90
2017-09-29T14:52:49.370Z,25.40
2017-09-29T14:55:21.270Z,25.60
2017-09-29T14:57:52.046Z,25.50
2017-09-29T15:00:21.814Z,25.70
2017-09-29T15:02:51.058Z,25.60
2017-09-29T15:05:20.547Z,25.60
2017-09-29T15:07:49.305Z,25.70
2017-09-29T15:10:18.611Z,25.50
2017-09-29T15:12:46.713Z,25.40
2017-09-29T15:15:16.799Z,25.50
2017-09-29T15:17:46.038Z,25.20
2017-09-29T15:20:15.091Z,25.20
2017-09-29T15:22:44.704Z,25.20
2017-09-29T15:25:14.283Z,25.20
2017-09-29T15:27:43.297Z,25.00
2017-09-29T15:30:12.245Z,25.10
2017-09-29T15:32:41.283Z,25.20
2017-09-29T15:35:10.294Z,25.20
2017-09-29T15:37:39.514Z,24.90
2017-09-29T15:40:08.775Z,24.80
2017-09-29T15:42:38.227Z,24.90
2017-09-29T15:45:07.594Z,24.70
2017-09-29T15:47:36.851Z,24.60
2017-09-29T15:50:06.954Z,24.90
2017-09-29T15:52:36.102Z,24.90
2017-09-29T15:55:04.894Z,24.70
2017-09-29T15:57:34.471Z,24.50
2017-09-29T16:00:03.801Z,24.60
2017-09-29T16:02:32.849Z,24.60
2017-09-29T16:05:03.379Z,24.60
2017-09-29T16:07:32.529Z,24.60
2017-09-29T16:10:01.360Z,24.50
2017-09-29T16:12:31.436Z,24.20
2017-09-29T16:15:00.250Z,24.20
2017-09-29T16:17:30.214Z,24.20
2017-09-29T16:19:59.618Z,24.20
2017-09-29T16:22:28.303Z,24.20
2017-09-29T16:24:57.016Z,24.10
2017-09-29T16:27:26.054Z,24.30
2017-09-29T16:29:55.433Z,24.30
2017-09-29T16:32:24.833Z,24.20
2017-09-29T16:34:53.746Z,24.00
2017-09-29T16:37:23.420Z,23.80
2017-09-29T16:39:53.674Z,23.80
2017-09-29T16:42:23.441Z,23.70
2017-09-29T16:44:52.670Z,23.90
2017-09-29T16:47:21.827Z,24.00
2017-09-29T16:49:50.944Z,24.00
2017-09-29T16:52:19.981Z,23.90
2017-09-29T16:54:51.073Z,23.60
2017-09-29T16:57:20.181Z,23.60
2017-09-29T16:59:50.403Z,23.50
2017-09-29T17:02:19.997Z,23.50
2017-09-29T17:04:49.305Z,23.50
2017-09-29T17:07:18.348Z,23.50
2017-09-29T17:09:48.513Z,23.50
2017-09-29T17:12:19.244Z,23.60
2017-09-29T17:14:49.355Z,23.50
2017-09-29T17:17:21.465Z,23.40
2017-09-29T17:19:50.670Z,23.40
2017-09-29T17:22:20.234Z,23.50
2017-09-29T17:24:49.234Z,23.50
2017-09-29T17:27:18.128Z,23.50
2017-09-29T17:29:47.996Z,23.50
2017-09-29T17:32:17.239Z,23.50
2017-09-29T17:34:46.339Z,23.30
2017-09-29T17:37:15.410Z,23.30
2017-09-29T17:39:44.427Z,23.30
2017-09-29T17:42:13.215Z,23.30
2017-09-29T17:44:42.153Z,23.30
2017-09-29T17:47:11.323Z,23.00
2017-09-29T17:49:40.299Z,22.90
2017-09-29T17:52:09.804Z,23.00
2017-09-29T17:54:38.898Z,23.00
2017-09-29T17:57:09.221Z,22.80
2017-09-29T17:59:38.111Z,22.80
2017-09-29T18:02:08.087Z,22.80
2017-09-29T18:04:37.244Z,22.70
2017-09-29T18:07:06.611Z,22.70
2017-09-29T18:09:36.501Z,22.70
2017-09-29T18:12:05.839Z,22.70
2017-09-29T18:14:35.246Z,22.60
2017-09-29T18:17:04.782Z,22.60
2017-09-29T18:19:34.218Z,22.60
2017-09-29T18:22:03.715Z,22.60
2017-09-29T18:24:32.936Z,22.60
2017-09-29T18:27:02.296Z,22.60
2017-09-29T18:29:32.357Z,22.60
2017-09-29T18:32:01.408Z,22.60
2017-09-29T18:34:31.324Z,22.60
2017-09-29T18:37:01.270Z,22.60
2017-09-29T18:39:31.156Z,22.50
2017-09-29T18:42:00.835Z,22.50
2017-09-29T18:44:31.668Z,22.60
2017-09-29T18:47:04.458Z,22.60
2017-09-29T18:49:33.349Z,22.50
2017-09-29T18:52:02.154Z,22.50
2017-09-29T18:54:31.265Z,22.50
2017-09-29T18:57:01.195Z,22.50
2017-09-29T18:59:30.300Z,22.50
2017-09-29T19:01:59.659Z,22.50
2017-09-29T19:04:28.531Z,22.40
2017-09-29T19:06:57.794Z,22.40
2017-09-29T19:09:27.638Z,22.50
2017-09-29T19:11:56.955Z,22.50
2017-09-29T19:14:26.150Z,22.50
2017-09-29T19:16:56.090Z,22.50
2017-09-29T19:19:25.767Z,22.50
2017-09-29T19:21:54.658Z,22.50
2017-09-29T19:24:24.157Z,22.50
2017-09-29T19:26:53.159Z,22.50
2017-09-29T19:29:23.276Z,22.50
2017-09-29T19:31:52.404Z,22.50
2017-09-29T19:34:21.448Z,22.50
2017-09-29T19:36:50.115Z,22.50
2017-09-29T19:39:20.302Z,22.40
2017-09-29T19:41:50.461Z,22.40
2017-09-29T19:44:19.783Z,22.30
2017-09-29T19:46:50.134Z,22.30
2017-09-29T19:49:20.269Z,22.30
2017-09-29T19:51:50.167Z,22.30
2017-09-29T19:54:19.264Z,22.40
2017-09-29T19:56:49.082Z,22.30
2017-09-29T19:59:18.323Z,22.30
2017-09-29T20:01:48.089Z,22.20
2017-09-29T20:04:17.652Z,22.30
2017-09-29T20:06:47.646Z,22.30
2017-09-29T20:09:16.806Z,22.20
2017-09-29T20:11:46.871Z,22.20
2017-09-29T20:14:16.852Z,22.10
2017-09-29T20:16:46.351Z,22.10
2017-09-29T20:19:15.177Z,22.10
2017-09-29T20:21:44.097Z,22.10
2017-09-29T20:24:13.032Z,22.10
2017-09-29T20:26:43.131Z,22.20
2017-09-29T20:29:12.535Z,22.20
2017-09-29T20:31:41.833Z,22.20
2017-09-29T20:34:11.979Z,22.10
2017-09-29T20:36:41.294Z,22.10
2017-09-29T20:39:10.453Z,22.10
2017-09-29T20:41:39.663Z,22.10
2017-09-29T20:44:09.041Z,22.00
2017-09-29T20:46:38.994Z,22.00
2017-09-29T20:49:08.270Z,22.00
2017-09-29T20:51:37.173Z,22.00
2017-09-29T20:54:05.874Z,21.90
2017-09-29T20:56:35.148Z,21.90
2017-09-29T20:59:04.418Z,21.90
2017-09-29T21:01:33.428Z,21.90
2017-09-29T21:04:02.609Z,21.80
2017-09-29T21:06:31.737Z,22.00
2017-09-29T21:09:03.498Z,21.90
2017-09-29T21:11:33.352Z,21.90
2017-09-29T21:14:02.260Z,21.80
2017-09-29T21:16:31.207Z,21.80
2017-09-29T21:19:00.287Z,21.80
2017-09-29T21:21:29.247Z,21.80
2017-09-29T21:23:58.960Z,21.80
2017-09-29T21:26:33.051Z,21.70
2017-09-29T21:29:10.898Z,21.70
2017-09-29T21:31:40.680Z,21.70
2017-09-29T21:34:10.169Z,21.70
2017-09-29T21:36:38.913Z,21.70
2017-09-29T21:39:08.011Z,21.70
2017-09-29T21:41:37.105Z,21.70
2017-09-29T21:44:06.815Z,21.70
2017-09-29T21:46:36.076Z,21.70
2017-09-29T21:49:05.424Z,21.70
2017-09-29T21:51:35.546Z,21.80
2017-09-29T21:54:04.260Z,21.80
2017-09-29T21:56:34.449Z,21.70
2017-09-29T21:59:03.653Z,21.70
2017-09-29T22:01:32.550Z,21.70
2017-09-29T22:04:01.400Z,21.70
2017-09-29T22:06:30.312Z,21.70
2017-09-29T22:08:59.207Z,21.70
2017-09-29T22:11:28.306Z,21.70
2017-09-29T22:13:57.399Z,21.70
2017-09-29T22:16:26.474Z,21.70
2017-09-29T22:18:55.914Z,21.80
2017-09-29T22:21:25.713Z,21.80
2017-09-29T22:23:55.206Z,21.80
2017-09-29T22:26:24.041Z,21.70
2017-09-29T22:28:53.204Z,21.70
2017-09-29T22:31:22.484Z,21.70
2017-09-29T22:33:52.424Z,21.70
2017-09-29T22:36:21.308Z,21.60
2017-09-29T22:38:51.038Z,21.60
2017-09-29T22:41:20.115Z,21.60
2017-09-29T22:43:49.192Z,21.70
2017-09-29T22:46:17.897Z,21.70
2017-09-29T22:48:46.789Z,21.60
2017-09-29T22:51:15.632Z,21.60
2017-09-29T22:53:44.365Z,21.60
2017-09-29T22:56:13.459Z,21.60
2017-09-29T22:58:42.354Z,21.60
2017-09-29T23:01:11.036Z,21.60
2017-09-29T23:03:39.928Z,21.60
2017-09-29T23:06:09.025Z,21.60
2017-09-29T23:08:37.919Z,21.60
2017-09-29T23:11:07.033Z,21.50
2017-09-29T23:13:35.955Z,21.50
2017-09-29T23:16:04.945Z,21.50
2017-09-29T23:18:34.505Z,21.50
2017-09-29T23:21:03.883Z,21.50
2017-09-29T23:23:32.901Z,21.50
2017-09-29T23:26:01.995Z,21.50
2017-09-29T23:28:31.506Z,21.50
2017-09-29T23:31:00.630Z,21.40
2017-09-29T23:33:30.448Z,21.40
2017-09-29T23:35:59.610Z,21.40
2017-09-29T23:38:28.296Z,21.40
2017-09-29T23:40:57.404Z,21.30
2017-09-29T23:43:26.504Z,21.40
2017-09-29T23:45:55.354Z,21.40
2017-09-29T23:48:24.470Z,21.40
2017-09-29T23:50:53.205Z,21.30
2017-09-29T23:53:22.167Z,21.40
2017-09-29T23:55:51.037Z,21.40
2017-09-29T23:58:21.180Z,21.40
